首页
METAR-TAF:

METAR-TAF

机场 :

巴斯蒂亚, 法国

纬度: 42-33N, 经度: 009-29E, 海拔: 8米

当前天气观测

该预报发布于27分钟前的11:00 UTC
风速2节,风向多变
温度 15°C
湿度 72%
气压 1020 hPa
能见度10公里或以上
少量云层高于200英尺

METAR: LFKB 261100Z AUTO VRB02KT 9999 FEW002 15/10 Q1020 NOSIG

时间: 12:27 (11:27 UTC)

预报

该预报发布于3小时和27分钟前的08:00 UTC
预报有效从26日的 09点(UTC)到 27日的 09点(UTC)
风速6节,风向东转东南
能见度10公里或以上
成为
从 26日的 18点(UTC)到 26日的 21点(UTC)
风速5节,风向西转西南
短暂存在
从 26日的 18点(UTC)到 27日的 06点(UTC)
多云层高于2000英尺

TAF: LFKB 260800Z 2609/2709 12006KT 9999 NSC TX15/2613Z TN07/2704Z BECMG 2618/2621 24005KT TEMPO 2618/2706 BKN020

超过4000个机场的气象观测和天气预报(METAR&TAF报告)。

可查询的气象台以黄色和红色小点在地图上表示。

将鼠标移到小点上方,可查看气象台名称。

然后点击查看天气观测和预报。

如需切换地图:点击带黑十字的绿色按钮放大地图;点击带横线的绿色按钮缩小地图;或者点击绿色箭头查看邻近地区的地图。


METAR-TAF: